Time;durP1;ratioP1;P1;durP2;ratioP2;P2;SDS_P1;SDS_P2;PMS_P1;PMS_P2;Temp;Humidity;BMP_temperature;BMP_pressure;BME280_temperature;BME280_humidity;BME280_pressure;Samples;Min_cycle;Max_cycle;Signal;HPM_P1;HPM_P2
2022/12/30 00:00:16;;;;;;;78.55;44.55;;;;;;;;;;5093220;28;20024;-75
2022/12/30 00:03:02;;;;;;;71.78;39.90;;;;;;;;;;5078991;28;20098;-75
2022/12/30 00:05:48;;;;;;;59.92;34.97;;;;;;;;;;5092721;28;20024;-74
2022/12/30 00:08:45;;;;;;;63.30;34.08;;;;;;;;;;5079239;28;20099;-76
2022/12/30 00:11:32;;;;;;;53.42;29.38;;;;;;;;;;5079240;28;20047;-76
2022/12/30 00:35:51;;;;;;;33.75;20.60;;;;;;;;;;5094243;28;20438;-75
2022/12/30 00:38:36;;;;;;;35.53;20.58;;;;;;;;;;5093470;28;20020;-76
2022/12/30 00:44:26;;;;;;;36.63;20.83;;;;;;;;;;5093906;28;20016;-75
2022/12/30 00:47:12;;;;;;;41.22;21.83;;;;;;;;;;5093049;28;20035;-76
2022/12/30 00:56:12;;;;;;;35.63;20.20;;;;;;;;;;5093665;28;20028;-76
2022/12/30 00:58:58;;;;;;;35.90;22.13;;;;;;;;;;5093216;28;20020;-77
2022/12/30 01:01:43;;;;;;;43.60;23.13;;;;;;;;;;5092533;28;20419;-77
2022/12/30 01:04:29;;;;;;;40.25;21.70;;;;;;;;;;5093268;28;20031;-76
2022/12/30 01:07:15;;;;;;;40.92;22.60;;;;;;;;;;5094206;28;20339;-76
2022/12/30 01:10:00;;;;;;;33.97;19.73;;;;;;;;;;5097891;28;20154;-75
2022/12/30 01:12:46;;;;;;;34.78;20.27;;;;;;;;;;5107038;28;20027;-77
2022/12/30 01:15:33;;;;;;;37.33;21.13;;;;;;;;;;5105677;28;20048;-75
2022/12/30 01:18:19;;;;;;;33.80;20.65;;;;;;;;;;5098190;28;20103;-76
2022/12/30 01:21:05;;;;;;;41.67;23.35;;;;;;;;;;5097495;28;20031;-76
2022/12/30 01:23:51;;;;;;;41.13;23.88;;;;;;;;;;5096622;28;20027;-76
2022/12/30 01:26:36;;;;;;;43.88;24.42;;;;;;;;;;5097538;28;20415;-77
2022/12/30 01:29:27;;;;;;;41.80;24.00;;;;;;;;;;5082850;28;20038;-77
2022/12/30 01:32:14;;;;;;;39.55;22.88;;;;;;;;;;5096223;28;20453;-77
2022/12/30 01:35:00;;;;;;;41.85;23.90;;;;;;;;;;5097545;28;20012;-76
2022/12/30 01:37:45;;;;;;;36.65;21.75;;;;;;;;;;5082157;28;20014;-76
2022/12/30 01:40:37;;;;;;;37.97;22.77;;;;;;;;;;5097023;28;20020;-76
2022/12/30 01:43:40;;;;;;;40.28;23.23;;;;;;;;;;5096130;28;20033;-76
2022/12/30 01:46:28;;;;;;;40.08;22.15;;;;;;;;;;5082568;28;20035;-77
2022/12/30 01:49:14;;;;;;;36.75;21.08;;;;;;;;;;5097116;28;20082;-75
2022/12/30 01:51:59;;;;;;;36.83;21.02;;;;;;;;;;5080719;28;20407;-76
2022/12/30 01:54:45;;;;;;;36.47;21.73;;;;;;;;;;5096612;28;20349;-76
2022/12/30 01:57:31;;;;;;;34.90;20.65;;;;;;;;;;5096070;28;20016;-77
2022/12/30 02:00:18;;;;;;;36.67;20.17;;;;;;;;;;5096714;28;20449;-76
2022/12/30 02:03:04;;;;;;;33.45;19.40;;;;;;;;;;5081678;28;20473;-76
2022/12/30 02:05:50;;;;;;;35.00;20.08;;;;;;;;;;5097239;28;20382;-77
2022/12/30 02:08:35;;;;;;;32.50;19.70;;;;;;;;;;5081571;28;20028;-75
2022/12/30 02:11:21;;;;;;;34.22;19.70;;;;;;;;;;5096471;28;20031;-76
2022/12/30 02:14:07;;;;;;;30.45;18.33;;;;;;;;;;5081856;28;20117;-76
2022/12/30 02:16:52;;;;;;;29.48;18.17;;;;;;;;;;5072083;28;20020;-75
2022/12/30 02:19:58;;;;;;;31.35;18.50;;;;;;;;;;5095157;28;20395;-75
2022/12/30 02:22:52;;;;;;;32.63;17.67;;;;;;;;;;5095630;28;20148;-75
2022/12/30 02:26:10;;;;;;;30.55;18.00;;;;;;;;;;5095668;28;20040;-75
2022/12/30 02:28:58;;;;;;;30.05;18.10;;;;;;;;;;5048939;28;20032;-77
2022/12/30 02:31:44;;;;;;;28.65;18.02;;;;;;;;;;5095769;28;20055;-76
2022/12/30 02:34:29;;;;;;;32.67;19.35;;;;;;;;;;5080442;28;20088;-77
2022/12/30 02:37:24;;;;;;;37.00;20.52;;;;;;;;;;5095291;28;20409;-76
2022/12/30 02:40:27;;;;;;;34.42;20.45;;;;;;;;;;5095178;28;20044;-77
2022/12/30 02:46:20;;;;;;;32.20;19.52;;;;;;;;;;5095123;28;20020;-75
2022/12/30 02:49:07;;;;;;;30.67;18.48;;;;;;;;;;5096265;28;20023;-76
2022/12/30 02:54:57;;;;;;;29.77;18.20;;;;;;;;;;5094839;28;20501;-75
2022/12/30 02:57:43;;;;;;;32.17;17.17;;;;;;;;;;5095456;28;20454;-76
2022/12/30 03:03:59;;;;;;;31.08;17.42;;;;;;;;;;5094744;28;20032;-76
2022/12/30 03:06:48;;;;;;;31.08;17.30;;;;;;;;;;5095412;28;20307;-75
2022/12/30 03:09:36;;;;;;;31.10;17.88;;;;;;;;;;5094837;28;20023;-75
2022/12/30 03:12:24;;;;;;;30.92;18.23;;;;;;;;;;5095049;28;20028;-75
2022/12/30 03:15:14;;;;;;;32.78;18.63;;;;;;;;;;5094820;28;20089;-75
2022/12/30 03:18:00;;;;;;;32.17;19.23;;;;;;;;;;5094426;28;20081;-76
2022/12/30 03:20:46;;;;;;;31.90;19.23;;;;;;;;;;5094991;28;20023;-75
2022/12/30 03:29:53;;;;;;;35.00;18.17;;;;;;;;;;5095443;28;20099;-75
2022/12/30 03:32:39;;;;;;;30.85;17.25;;;;;;;;;;5093843;28;20024;-76
2022/12/30 03:35:25;;;;;;;33.70;19.52;;;;;;;;;;5079613;28;20388;-76
2022/12/30 03:38:12;;;;;;;31.38;17.92;;;;;;;;;;5094736;28;20049;-75
2022/12/30 03:40:59;;;;;;;28.83;17.20;;;;;;;;;;5093958;28;20103;-75
2022/12/30 03:43:44;;;;;;;31.17;17.23;;;;;;;;;;5094205;28;20124;-76
2022/12/30 03:46:31;;;;;;;28.58;15.95;;;;;;;;;;5094853;28;20019;-75
2022/12/30 03:49:17;;;;;;;30.48;16.80;;;;;;;;;;5094996;28;20031;-76
2022/12/30 03:52:03;;;;;;;30.10;17.15;;;;;;;;;;5094166;28;20067;-75
2022/12/30 03:54:49;;;;;;;27.80;16.33;;;;;;;;;;5093819;28;20501;-75
2022/12/30 03:57:36;;;;;;;28.15;16.55;;;;;;;;;;5094436;28;20077;-74
2022/12/30 04:00:22;;;;;;;29.08;17.25;;;;;;;;;;5093790;28;20024;-76
2022/12/30 04:03:07;;;;;;;28.15;16.30;;;;;;;;;;5079221;28;20016;-75
2022/12/30 04:05:54;;;;;;;29.08;17.02;;;;;;;;;;5094412;28;20059;-76
2022/12/30 04:08:39;;;;;;;29.75;16.42;;;;;;;;;;5093479;28;20442;-75
2022/12/30 04:11:25;;;;;;;33.80;17.70;;;;;;;;;;5093921;28;20099;-76
2022/12/30 04:14:10;;;;;;;32.65;18.10;;;;;;;;;;5093587;28;20012;-75
2022/12/30 04:16:56;;;;;;;31.83;17.85;;;;;;;;;;5093614;28;20020;-75
2022/12/30 04:19:42;;;;;;;30.38;18.10;;;;;;;;;;5094092;28;20110;-75
2022/12/30 04:22:28;;;;;;;29.92;18.30;;;;;;;;;;5093422;28;20108;-75
2022/12/30 04:25:14;;;;;;;30.52;17.73;;;;;;;;;;5093998;28;20034;-74
2022/12/30 04:27:59;;;;;;;31.98;18.33;;;;;;;;;;5078531;28;20020;-76
2022/12/30 04:30:47;;;;;;;32.55;19.10;;;;;;;;;;5079218;28;20023;-75
2022/12/30 04:33:33;;;;;;;29.70;17.50;;;;;;;;;;5093966;28;20095;-75
2022/12/30 04:36:19;;;;;;;33.92;19.30;;;;;;;;;;5093455;28;20031;-76
2022/12/30 04:39:04;;;;;;;38.35;21.48;;;;;;;;;;5093341;28;20034;-77
2022/12/30 04:41:50;;;;;;;36.05;20.77;;;;;;;;;;5069480;28;20020;-76
2022/12/30 04:44:36;;;;;;;37.38;21.98;;;;;;;;;;5097908;28;20502;-76
2022/12/30 04:47:21;;;;;;;38.53;21.73;;;;;;;;;;5097571;28;20050;-73
2022/12/30 04:50:10;;;;;;;36.58;21.35;;;;;;;;;;5097558;28;20421;-75
2022/12/30 04:52:56;;;;;;;34.83;20.10;;;;;;;;;;5082892;28;20016;-74
2022/12/30 04:55:41;;;;;;;34.63;20.20;;;;;;;;;;5097975;28;20024;-75
2022/12/30 04:58:27;;;;;;;38.35;20.73;;;;;;;;;;5082441;28;20116;-76
2022/12/30 05:01:12;;;;;;;37.97;20.63;;;;;;;;;;5096713;28;20063;-76
2022/12/30 05:03:58;;;;;;;34.60;20.65;;;;;;;;;;5097426;28;20388;-75
2022/12/30 05:06:44;;;;;;;36.40;20.83;;;;;;;;;;5096731;28;20035;-76
2022/12/30 05:09:29;;;;;;;36.38;20.63;;;;;;;;;;5097153;28;20030;-75
2022/12/30 05:12:15;;;;;;;39.33;21.15;;;;;;;;;;5097229;28;20016;-76
2022/12/30 05:15:00;;;;;;;39.65;22.10;;;;;;;;;;5097538;28;20023;-76
2022/12/30 05:17:46;;;;;;;39.58;22.33;;;;;;;;;;5097961;28;20035;-74
2022/12/30 05:20:32;;;;;;;43.25;24.30;;;;;;;;;;5096910;28;20023;-76
2022/12/30 05:26:21;;;;;;;37.70;20.48;;;;;;;;;;5097386;28;20028;-76
2022/12/30 05:29:07;;;;;;;38.67;21.77;;;;;;;;;;5096313;28;20030;-76
2022/12/30 05:31:53;;;;;;;35.75;20.55;;;;;;;;;;5089166;28;20365;-75
2022/12/30 05:34:38;;;;;;;35.83;20.05;;;;;;;;;;5109367;28;20024;-75
2022/12/30 05:37:24;;;;;;;33.83;19.67;;;;;;;;;;5112752;28;20077;-75
2022/12/30 05:40:10;;;;;;;32.30;19.05;;;;;;;;;;5104159;28;20358;-74
2022/12/30 05:42:55;;;;;;;32.72;18.58;;;;;;;;;;5100396;28;20487;-77
2022/12/30 05:45:41;;;;;;;33.60;19.83;;;;;;;;;;5086982;28;20020;-76
2022/12/30 05:48:27;;;;;;;35.85;19.40;;;;;;;;;;5100429;28;20051;-74
2022/12/30 05:51:12;;;;;;;36.78;20.60;;;;;;;;;;5083746;28;20437;-75
2022/12/30 05:53:58;;;;;;;33.40;19.35;;;;;;;;;;5098269;28;20327;-75
2022/12/30 05:56:43;;;;;;;34.78;20.35;;;;;;;;;;5099512;28;20458;-75
2022/12/30 05:59:29;;;;;;;35.80;20.52;;;;;;;;;;5086548;28;20024;-75
2022/12/30 06:02:14;;;;;;;37.17;20.13;;;;;;;;;;5116981;28;20082;-75
2022/12/30 06:05:00;;;;;;;33.55;19.27;;;;;;;;;;5118879;28;20055;-75
2022/12/30 06:07:46;;;;;;;37.17;20.65;;;;;;;;;;5115470;28;20387;-76
2022/12/30 06:10:31;;;;;;;38.78;19.63;;;;;;;;;;5102890;28;20028;-76
2022/12/30 06:13:17;;;;;;;38.03;20.67;;;;;;;;;;5102401;28;20038;-75
2022/12/30 06:16:03;;;;;;;43.60;23.42;;;;;;;;;;5104342;28;20019;-75
2022/12/30 06:18:48;;;;;;;41.45;20.95;;;;;;;;;;5117022;28;20004;-75
2022/12/30 06:21:34;;;;;;;34.30;19.83;;;;;;;;;;5102565;28;20063;-76
2022/12/30 06:24:20;;;;;;;35.05;19.67;;;;;;;;;;5098854;28;20030;-76
2022/12/30 06:27:05;;;;;;;37.03;19.75;;;;;;;;;;5115786;28;20024;-76
2022/12/30 06:29:51;;;;;;;39.67;20.55;;;;;;;;;;5110741;28;20024;-76
2022/12/30 06:32:37;;;;;;;32.65;20.10;;;;;;;;;;5117870;28;20009;-75
2022/12/30 06:35:22;;;;;;;39.58;20.55;;;;;;;;;;5113458;28;20031;-76
2022/12/30 06:38:08;;;;;;;37.85;20.50;;;;;;;;;;5111337;28;20152;-76
2022/12/30 06:40:54;;;;;;;37.00;21.50;;;;;;;;;;5103336;28;20020;-75
2022/12/30 06:43:39;;;;;;;34.72;20.23;;;;;;;;;;5087171;28;20035;-75
2022/12/30 06:46:25;;;;;;;41.03;21.15;;;;;;;;;;5101401;28;20020;-75
2022/12/30 06:49:10;;;;;;;36.47;20.45;;;;;;;;;;5102865;28;20024;-75
2022/12/30 06:51:56;;;;;;;35.45;19.33;;;;;;;;;;5100348;28;20052;-76
2022/12/30 06:54:42;;;;;;;36.80;21.02;;;;;;;;;;5100295;28;20480;-75
2022/12/30 06:57:27;;;;;;;34.72;19.13;;;;;;;;;;5088733;28;20042;-75
2022/12/30 07:00:13;;;;;;;32.10;18.77;;;;;;;;;;5103250;28;20452;-76
2022/12/30 07:02:59;;;;;;;32.22;19.00;;;;;;;;;;5101535;28;20343;-75
2022/12/30 07:05:44;;;;;;;38.38;19.95;;;;;;;;;;5100562;28;20024;-75
2022/12/30 07:08:30;;;;;;;38.45;20.70;;;;;;;;;;5099537;28;20016;-75
2022/12/30 07:11:15;;;;;;;36.10;20.83;;;;;;;;;;5099540;28;20020;-75
2022/12/30 07:14:01;;;;;;;33.08;20.48;;;;;;;;;;5099678;28;20075;-75
2022/12/30 07:16:46;;;;;;;38.28;21.60;;;;;;;;;;5084416;28;20315;-73
2022/12/30 07:19:32;;;;;;;38.22;20.95;;;;;;;;;;5098005;28;20319;-74
2022/12/30 07:22:18;;;;;;;39.20;22.20;;;;;;;;;;5081964;28;20509;-75
2022/12/30 07:25:03;;;;;;;40.70;22.95;;;;;;;;;;5082549;28;20028;-76
2022/12/30 07:27:49;;;;;;;40.17;22.92;;;;;;;;;;5082355;28;20110;-76
2022/12/30 07:30:35;;;;;;;40.85;22.67;;;;;;;;;;5095445;28;20020;-75
2022/12/30 07:33:20;;;;;;;40.33;22.38;;;;;;;;;;5081504;28;20328;-76
2022/12/30 07:36:06;;;;;;;43.10;21.83;;;;;;;;;;5096097;28;20040;-76
2022/12/30 07:38:51;;;;;;;45.97;22.60;;;;;;;;;;5080968;28;20358;-74
2022/12/30 07:41:37;;;;;;;42.17;23.15;;;;;;;;;;5094548;28;20420;-75
2022/12/30 07:44:23;;;;;;;45.83;24.90;;;;;;;;;;5094692;28;20024;-76
2022/12/30 07:47:08;;;;;;;41.45;23.58;;;;;;;;;;5080854;28;20056;-75
2022/12/30 07:49:54;;;;;;;36.53;21.52;;;;;;;;;;5094366;28;20077;-75
2022/12/30 07:52:40;;;;;;;44.13;25.23;;;;;;;;;;5079595;28;20017;-74
2022/12/30 07:55:25;;;;;;;44.13;24.67;;;;;;;;;;5094747;28;20027;-76
2022/12/30 07:58:11;;;;;;;36.95;22.60;;;;;;;;;;5079965;28;20024;-77
2022/12/30 08:00:56;;;;;;;34.60;21.30;;;;;;;;;;5094001;28;20052;-77
2022/12/30 08:03:43;;;;;;;36.92;22.02;;;;;;;;;;5094122;28;20035;-76
2022/12/30 08:06:28;;;;;;;31.55;20.67;;;;;;;;;;5094992;28;20024;-77
2022/12/30 08:09:14;;;;;;;36.65;21.67;;;;;;;;;;5093761;28;20406;-75
2022/12/30 08:11:59;;;;;;;37.88;22.35;;;;;;;;;;5079352;28;20039;-76
2022/12/30 08:14:45;;;;;;;37.03;22.80;;;;;;;;;;5080067;28;20030;-77
2022/12/30 08:17:30;;;;;;;39.03;22.55;;;;;;;;;;5093478;28;20024;-76
2022/12/30 08:20:16;;;;;;;37.72;23.20;;;;;;;;;;5092955;28;20016;-76
2022/12/30 08:23:02;;;;;;;37.97;22.25;;;;;;;;;;5093582;28;20110;-75
2022/12/30 08:25:47;;;;;;;34.28;20.98;;;;;;;;;;5093413;28;20342;-75
2022/12/30 08:28:33;;;;;;;35.20;21.55;;;;;;;;;;5093695;28;20354;-74
2022/12/30 08:31:24;;;;;;;37.97;23.08;;;;;;;;;;5093284;28;20140;-76
2022/12/30 08:34:10;;;;;;;37.47;22.25;;;;;;;;;;5078991;28;20074;-76
2022/12/30 08:36:56;;;;;;;34.95;20.85;;;;;;;;;;5092885;28;20048;-76
2022/12/30 08:39:41;;;;;;;32.42;20.13;;;;;;;;;;5092857;28;20039;-76
2022/12/30 08:42:27;;;;;;;33.15;20.10;;;;;;;;;;5078055;28;20045;-75
2022/12/30 08:45:12;;;;;;;31.58;18.88;;;;;;;;;;5092263;28;20027;-76
2022/12/30 08:47:58;;;;;;;32.75;18.88;;;;;;;;;;5093364;28;20039;-78
2022/12/30 08:50:43;;;;;;;29.73;19.42;;;;;;;;;;5092948;28;20400;-76
2022/12/30 08:53:29;;;;;;;27.17;18.67;;;;;;;;;;5079063;28;20020;-76
2022/12/30 08:56:15;;;;;;;27.83;18.75;;;;;;;;;;5093345;28;20029;-75
2022/12/30 08:59:01;;;;;;;34.47;18.63;;;;;;;;;;5092080;28;20365;-76
2022/12/30 09:01:47;;;;;;;31.83;18.60;;;;;;;;;;5077114;28;20040;-75
2022/12/30 09:04:32;;;;;;;29.20;19.23;;;;;;;;;;5079385;28;20370;-75
2022/12/30 09:07:18;;;;;;;34.42;22.00;;;;;;;;;;5078832;28;20016;-76
2022/12/30 09:10:06;;;;;;;29.83;18.63;;;;;;;;;;5092327;28;20358;-76
2022/12/30 09:12:51;;;;;;;30.02;18.23;;;;;;;;;;5078058;28;20434;-76
2022/12/30 09:15:37;;;;;;;26.35;17.67;;;;;;;;;;5093124;28;20024;-75
2022/12/30 09:18:23;;;;;;;28.58;17.52;;;;;;;;;;5092939;28;20008;-77
2022/12/30 09:21:08;;;;;;;32.20;19.52;;;;;;;;;;5092625;28;20020;-75
2022/12/30 09:23:54;;;;;;;35.00;19.90;;;;;;;;;;5093102;28;20092;-76
2022/12/30 09:26:40;;;;;;;29.25;18.15;;;;;;;;;;5092578;28;20035;-77
2022/12/30 09:29:25;;;;;;;32.45;18.42;;;;;;;;;;5079949;28;20024;-76
2022/12/30 09:32:11;;;;;;;30.35;18.73;;;;;;;;;;5096097;28;20027;-75
2022/12/30 09:34:56;;;;;;;30.30;19.00;;;;;;;;;;5096110;28;20027;-76
2022/12/30 09:37:42;;;;;;;29.63;19.13;;;;;;;;;;5097032;28;20081;-76
2022/12/30 09:40:36;;;;;;;28.92;19.50;;;;;;;;;;5082305;28;20434;-76
2022/12/30 09:43:34;;;;;;;35.25;21.75;;;;;;;;;;5095906;28;20160;-75
2022/12/30 09:46:29;;;;;;;33.80;19.80;;;;;;;;;;5096907;28;20039;-76
2022/12/30 09:49:21;;;;;;;31.20;20.17;;;;;;;;;;5081274;28;20024;-76
2022/12/30 09:52:11;;;;;;;37.70;21.50;;;;;;;;;;5095302;28;20024;-76
2022/12/30 09:55:11;;;;;;;32.15;21.08;;;;;;;;;;5080776;28;20012;-75
2022/12/30 09:58:02;;;;;;;31.42;19.15;;;;;;;;;;5096150;28;20047;-74
2022/12/30 10:00:48;;;;;;;29.63;18.73;;;;;;;;;;5095178;28;20119;-76
2022/12/30 10:03:33;;;;;;;33.00;18.85;;;;;;;;;;5096950;28;20322;-76
2022/12/30 10:06:22;;;;;;;28.70;18.65;;;;;;;;;;5096186;28;20047;-77
2022/12/30 10:09:07;;;;;;;28.45;17.25;;;;;;;;;;5080650;28;20020;-76
2022/12/30 10:12:07;;;;;;;30.63;18.52;;;;;;;;;;5095826;28;20039;-76
2022/12/30 10:15:11;;;;;;;29.88;18.50;;;;;;;;;;5082330;28;20024;-75
2022/12/30 10:18:00;;;;;;;30.95;18.25;;;;;;;;;;5080854;28;20400;-76
2022/12/30 10:21:01;;;;;;;27.77;17.60;;;;;;;;;;5080839;28;20107;-75
2022/12/30 10:23:47;;;;;;;26.05;17.52;;;;;;;;;;5080905;28;20020;-75
2022/12/30 10:26:43;;;;;;;26.92;17.90;;;;;;;;;;5095788;28;20031;-75
2022/12/30 10:29:31;;;;;;;26.83;17.52;;;;;;;;;;5082635;28;20493;-76
2022/12/30 10:32:19;;;;;;;30.67;20.08;;;;;;;;;;5081955;28;20022;-76
2022/12/30 10:35:27;;;;;;;31.02;19.95;;;;;;;;;;5096541;28;20020;-75
2022/12/30 10:38:18;;;;;;;33.35;20.42;;;;;;;;;;5055236;28;20442;-75
2022/12/30 10:41:10;;;;;;;37.42;22.20;;;;;;;;;;5081702;28;20334;-74
2022/12/30 10:44:09;;;;;;;48.05;25.05;;;;;;;;;;5095287;28;20056;-75
2022/12/30 10:47:06;;;;;;;37.83;22.33;;;;;;;;;;5095526;28;20043;-76
2022/12/30 10:50:01;;;;;;;34.65;21.23;;;;;;;;;;5080338;28;20146;-75
2022/12/30 10:52:47;;;;;;;27.38;17.38;;;;;;;;;;5095329;28;20415;-76
2022/12/30 10:55:34;;;;;;;26.35;17.25;;;;;;;;;;5094670;28;20008;-76
2022/12/30 10:58:23;;;;;;;28.10;17.90;;;;;;;;;;5082257;28;20023;-76
2022/12/30 11:01:20;;;;;;;26.40;18.55;;;;;;;;;;5079430;28;20044;-76
2022/12/30 11:04:05;;;;;;;25.27;17.10;;;;;;;;;;5097644;28;20017;-75
2022/12/30 11:06:58;;;;;;;23.67;17.08;;;;;;;;;;5095449;28;20457;-77
2022/12/30 11:09:45;;;;;;;27.83;17.20;;;;;;;;;;5096995;28;20116;-77
2022/12/30 11:15:50;;;;;;;25.00;16.02;;;;;;;;;;5097126;28;20035;-76
2022/12/30 11:18:35;;;;;;;25.33;16.38;;;;;;;;;;5093765;28;20016;-77
2022/12/30 11:21:25;;;;;;;26.45;15.50;;;;;;;;;;5095469;28;20111;-76
2022/12/30 11:24:14;;;;;;;23.40;15.38;;;;;;;;;;5095610;28;20036;-77
2022/12/30 11:27:00;;;;;;;23.52;16.27;;;;;;;;;;5095268;28;20020;-77
2022/12/30 11:29:47;;;;;;;24.13;16.15;;;;;;;;;;5095115;28;20446;-79
2022/12/30 11:32:33;;;;;;;21.80;14.68;;;;;;;;;;5094416;28;20039;-77
2022/12/30 11:35:33;;;;;;;27.15;16.08;;;;;;;;;;5080980;28;20044;-77
2022/12/30 11:38:30;;;;;;;23.20;16.40;;;;;;;;;;5081032;28;20156;-77
2022/12/30 11:41:16;;;;;;;23.88;15.77;;;;;;;;;;5094800;28;20431;-76
2022/12/30 11:44:01;;;;;;;27.88;17.77;;;;;;;;;;5095202;28;20024;-76
2022/12/30 11:46:50;;;;;;;24.42;15.95;;;;;;;;;;5094323;28;20035;-77
2022/12/30 11:49:35;;;;;;;24.90;16.65;;;;;;;;;;5093524;28;20035;-76
2022/12/30 11:52:23;;;;;;;25.48;15.95;;;;;;;;;;5091772;28;20085;-76
2022/12/30 11:55:17;;;;;;;25.58;15.30;;;;;;;;;;5079415;28;20078;-76
2022/12/30 11:58:03;;;;;;;22.45;15.43;;;;;;;;;;5093359;28;20458;-77
2022/12/30 12:01:01;;;;;;;22.67;15.45;;;;;;;;;;5093754;28;20068;-77
2022/12/30 12:03:48;;;;;;;25.23;16.13;;;;;;;;;;5094374;28;20024;-76
2022/12/30 12:06:49;;;;;;;21.67;15.38;;;;;;;;;;5093676;28;20080;-76
2022/12/30 12:09:38;;;;;;;29.90;17.58;;;;;;;;;;5094321;28;20035;-74
2022/12/30 12:12:27;;;;;;;27.38;16.10;;;;;;;;;;5093225;28;20024;-76
2022/12/30 12:15:25;;;;;;;25.25;16.05;;;;;;;;;;5093569;28;20024;-76
2022/12/30 12:18:19;;;;;;;24.95;15.25;;;;;;;;;;5093897;28;20052;-76
2022/12/30 12:21:08;;;;;;;21.90;15.45;;;;;;;;;;5093526;28;20020;-76
2022/12/30 12:23:57;;;;;;;22.20;15.93;;;;;;;;;;5093518;28;20131;-75
2022/12/30 12:26:55;;;;;;;20.08;13.88;;;;;;;;;;5094683;28;20036;-75
2022/12/30 12:29:41;;;;;;;20.92;14.63;;;;;;;;;;5093882;28;20350;-75
2022/12/30 12:32:59;;;;;;;24.05;14.27;;;;;;;;;;5079035;28;20036;-75
2022/12/30 12:35:48;;;;;;;21.65;13.93;;;;;;;;;;5050977;28;20017;-74
2022/12/30 12:39:12;;;;;;;21.58;14.90;;;;;;;;;;5093520;28;20024;-76
2022/12/30 12:42:08;;;;;;;22.27;14.50;;;;;;;;;;4992576;28;20026;-76
2022/12/30 12:45:06;;;;;;;22.38;14.90;;;;;;;;;;4994725;28;20408;-75
2022/12/30 12:48:03;;;;;;;21.52;14.35;;;;;;;;;;5078493;28;20036;-76
2022/12/30 12:50:56;;;;;;;20.60;14.75;;;;;;;;;;5093762;28;20422;-76
2022/12/30 12:53:44;;;;;;;21.55;15.35;;;;;;;;;;5093209;28;20050;-75
2022/12/30 12:56:33;;;;;;;22.85;15.93;;;;;;;;;;5093582;28;20145;-75
2022/12/30 12:59:18;;;;;;;23.30;15.48;;;;;;;;;;5093968;28;20020;-75
2022/12/30 13:02:13;;;;;;;23.88;15.30;;;;;;;;;;5093270;28;20440;-76
2022/12/30 13:05:17;;;;;;;22.52;13.80;;;;;;;;;;5095726;28;20442;-76
2022/12/30 13:08:03;;;;;;;24.38;14.63;;;;;;;;;;5097511;28;20037;-76
2022/12/30 13:11:05;;;;;;;22.52;14.75;;;;;;;;;;5097902;28;20032;-76
2022/12/30 13:13:51;;;;;;;25.08;15.55;;;;;;;;;;5079097;28;20107;-75
2022/12/30 13:16:39;;;;;;;22.60;15.40;;;;;;;;;;5083219;28;20099;-76
2022/12/30 13:19:30;;;;;;;23.88;15.07;;;;;;;;;;5097494;28;20028;-75
2022/12/30 13:22:28;;;;;;;22.75;14.52;;;;;;;;;;5095761;28;20331;-76
2022/12/30 13:25:21;;;;;;;21.08;13.93;;;;;;;;;;5097433;28;20016;-76
2022/12/30 13:28:13;;;;;;;23.17;14.55;;;;;;;;;;5096424;28;20070;-76
2022/12/30 13:31:20;;;;;;;23.67;14.65;;;;;;;;;;5082005;28;20028;-76
2022/12/30 13:34:08;;;;;;;21.73;15.02;;;;;;;;;;5097144;28;20035;-76
2022/12/30 13:37:12;;;;;;;20.05;14.85;;;;;;;;;;5096578;28;20047;-76
2022/12/30 13:40:00;;;;;;;22.63;15.30;;;;;;;;;;5097210;28;20077;-76
2022/12/30 13:42:55;;;;;;;23.70;14.98;;;;;;;;;;5095611;28;20016;-76
2022/12/30 13:45:47;;;;;;;25.02;16.92;;;;;;;;;;5082325;28;20468;-75
2022/12/30 13:48:33;;;;;;;24.45;15.73;;;;;;;;;;5096751;28;20024;-76
2022/12/30 13:51:20;;;;;;;24.17;15.45;;;;;;;;;;5096668;28;20058;-77
2022/12/30 13:54:07;;;;;;;26.88;15.88;;;;;;;;;;5081790;28;20031;-75
2022/12/30 13:56:54;;;;;;;22.77;15.52;;;;;;;;;;5097389;28;20008;-75
2022/12/30 13:59:39;;;;;;;21.10;15.32;;;;;;;;;;5097506;28;20347;-76
2022/12/30 14:02:25;;;;;;;24.80;16.63;;;;;;;;;;5095829;28;20040;-76
2022/12/30 14:05:31;;;;;;;26.00;16.67;;;;;;;;;;5096835;28;20020;-76
2022/12/30 14:08:17;;;;;;;26.20;16.17;;;;;;;;;;5097289;28;20453;-75
2022/12/30 14:11:02;;;;;;;24.85;17.00;;;;;;;;;;5095716;28;20012;-76
2022/12/30 14:14:26;;;;;;;26.20;16.67;;;;;;;;;;5103926;28;20469;-75
2022/12/30 14:17:12;;;;;;;25.35;16.50;;;;;;;;;;4977464;28;20035;-77
2022/12/30 14:20:00;;;;;;;27.40;18.15;;;;;;;;;;4996481;28;20125;-76
2022/12/30 14:22:47;;;;;;;25.00;17.42;;;;;;;;;;5100947;28;20031;-74
2022/12/30 14:25:34;;;;;;;27.35;17.88;;;;;;;;;;5085663;28;20103;-75
2022/12/30 14:28:26;;;;;;;26.23;18.20;;;;;;;;;;5082188;28;20429;-75
2022/12/30 14:31:24;;;;;;;27.83;18.08;;;;;;;;;;5080906;28;20454;-74
2022/12/30 14:34:20;;;;;;;26.95;16.45;;;;;;;;;;5081128;28;20035;-75
2022/12/30 14:37:06;;;;;;;28.92;18.38;;;;;;;;;;5095693;28;20016;-75
2022/12/30 14:39:52;;;;;;;28.60;17.75;;;;;;;;;;5080803;28;20047;-75
2022/12/30 14:42:38;;;;;;;26.65;17.35;;;;;;;;;;5082305;28;20020;-75
2022/12/30 14:45:24;;;;;;;28.02;17.38;;;;;;;;;;5096316;28;20008;-75
2022/12/30 14:48:10;;;;;;;29.13;17.63;;;;;;;;;;5103903;28;20095;-76
2022/12/30 14:50:57;;;;;;;31.27;19.98;;;;;;;;;;5101189;28;20098;-74
2022/12/30 14:53:43;;;;;;;27.25;18.30;;;;;;;;;;5098922;28;20307;-75
2022/12/30 14:56:29;;;;;;;27.77;19.25;;;;;;;;;;5096065;28;20055;-75
2022/12/30 14:59:16;;;;;;;27.60;18.75;;;;;;;;;;5095548;28;20020;-76
2022/12/30 15:02:13;;;;;;;37.75;19.65;;;;;;;;;;5094557;28;20058;-76
2022/12/30 15:05:18;;;;;;;30.77;19.48;;;;;;;;;;5094399;28;20122;-75
2022/12/30 15:08:08;;;;;;;35.90;20.73;;;;;;;;;;5095188;28;20144;-77
2022/12/30 15:10:56;;;;;;;35.42;22.75;;;;;;;;;;5094834;28;20381;-76
2022/12/30 15:13:44;;;;;;;35.92;23.40;;;;;;;;;;5095551;28;20020;-76
2022/12/30 15:16:31;;;;;;;41.67;25.13;;;;;;;;;;5081295;28;20016;-76
2022/12/30 15:19:27;;;;;;;38.35;23.83;;;;;;;;;;5080579;28;20350;-75
2022/12/30 15:22:14;;;;;;;40.22;24.95;;;;;;;;;;5079764;28;20035;-75
2022/12/30 15:24:59;;;;;;;40.65;25.95;;;;;;;;;;5080864;28;20016;-75
2022/12/30 15:27:48;;;;;;;41.72;26.80;;;;;;;;;;5094229;28;20457;-76
2022/12/30 15:30:36;;;;;;;46.13;27.13;;;;;;;;;;5079695;28;20028;-75
2022/12/30 15:33:21;;;;;;;47.95;29.20;;;;;;;;;;5080360;28;20399;-75
2022/12/30 15:36:07;;;;;;;48.50;30.88;;;;;;;;;;5094731;28;20031;-75
2022/12/30 15:38:54;;;;;;;57.58;35.25;;;;;;;;;;5094579;28;20066;-75
2022/12/30 15:41:40;;;;;;;56.58;36.10;;;;;;;;;;5095501;28;20073;-75
2022/12/30 15:44:26;;;;;;;60.28;37.60;;;;;;;;;;5094226;28;20039;-76
2022/12/30 15:47:23;;;;;;;61.30;37.35;;;;;;;;;;5094348;28;20030;-76
2022/12/30 15:50:26;;;;;;;70.88;41.58;;;;;;;;;;5094279;28;20077;-76
2022/12/30 15:53:23;;;;;;;71.60;43.38;;;;;;;;;;5094137;28;20051;-76
2022/12/30 15:56:10;;;;;;;78.75;44.30;;;;;;;;;;5094471;28;20012;-75
2022/12/30 15:59:01;;;;;;;79.68;44.28;;;;;;;;;;5093692;28;20024;-75
2022/12/30 16:01:47;;;;;;;66.90;38.95;;;;;;;;;;5093400;28;20067;-75
2022/12/30 16:04:39;;;;;;;69.82;39.08;;;;;;;;;;5092903;28;20020;-74
2022/12/30 16:07:26;;;;;;;72.80;41.60;;;;;;;;;;5079096;28;20020;-74
2022/12/30 16:10:11;;;;;;;69.13;40.65;;;;;;;;;;5078954;28;20020;-75
2022/12/30 16:12:58;;;;;;;70.28;41.42;;;;;;;;;;5093080;28;20016;-75
2022/12/30 16:15:44;;;;;;;74.05;41.20;;;;;;;;;;5093393;28;20027;-75
2022/12/30 16:18:31;;;;;;;76.65;43.92;;;;;;;;;;5093502;28;20028;-75
2022/12/30 16:21:19;;;;;;;77.25;42.85;;;;;;;;;;5093076;28;20031;-75
2022/12/30 16:24:14;;;;;;;72.35;41.70;;;;;;;;;;5093492;28;20024;-75
2022/12/30 16:27:12;;;;;;;77.18;43.28;;;;;;;;;;5094292;28;20020;-75
2022/12/30 16:30:18;;;;;;;73.82;42.38;;;;;;;;;;5093155;28;20444;-75
2022/12/30 16:33:13;;;;;;;72.55;40.35;;;;;;;;;;5074929;28;20032;-75
2022/12/30 16:36:00;;;;;;;71.80;41.58;;;;;;;;;;5078779;28;20315;-76
2022/12/30 16:38:56;;;;;;;73.82;42.55;;;;;;;;;;5091588;28;20020;-76
2022/12/30 16:41:42;;;;;;;73.88;41.38;;;;;;;;;;5092458;28;20024;-75
2022/12/30 16:44:28;;;;;;;70.00;40.72;;;;;;;;;;5078197;28;20450;-75
2022/12/30 16:47:13;;;;;;;81.80;48.03;;;;;;;;;;5092913;28;20039;-76
2022/12/30 16:49:59;;;;;;;88.63;50.25;;;;;;;;;;5077518;28;20434;-75
2022/12/30 16:52:45;;;;;;;83.65;47.42;;;;;;;;;;5092368;28;20043;-76
2022/12/30 16:55:30;;;;;;;75.25;44.80;;;;;;;;;;5093646;28;20024;-76
2022/12/30 16:58:16;;;;;;;76.10;44.40;;;;;;;;;;5077500;28;20012;-76
2022/12/30 17:01:02;;;;;;;82.28;47.78;;;;;;;;;;5037506;28;1129505;-75
2022/12/30 17:03:47;;;;;;;76.07;43.70;;;;;;;;;;5078583;28;20056;-76
2022/12/30 17:06:33;;;;;;;73.55;44.63;;;;;;;;;;5092816;28;20103;-75
2022/12/30 17:10:52;;;;;;;83.28;49.20;;;;;;;;;;5078385;28;20020;-76
2022/12/30 17:12:25;;;;;;;82.28;48.33;;;;;;;;;;5093025;28;20021;-75